createdAt,value
2017-12-01T00:02:08.516Z,8.98
2017-12-01T00:04:36.824Z,9.98
2017-12-01T00:07:05.109Z,9.62
2017-12-01T00:09:33.469Z,9.80
2017-12-01T00:12:01.756Z,9.40
2017-12-01T00:14:30.065Z,10.63
2017-12-01T00:16:58.344Z,10.95
2017-12-01T00:19:26.648Z,9.83
2017-12-01T00:21:54.927Z,9.05
2017-12-01T00:24:23.265Z,9.57
2017-12-01T00:26:51.539Z,11.87
2017-12-01T00:29:19.852Z,10.18
2017-12-01T00:31:48.140Z,11.03
2017-12-01T00:34:16.458Z,10.17
2017-12-01T00:36:44.748Z,27.73
2017-12-01T00:39:13.056Z,34.53
2017-12-01T00:41:41.349Z,10.95
2017-12-01T00:44:09.647Z,9.58
2017-12-01T00:46:37.924Z,9.70
2017-12-01T00:49:06.229Z,9.67
2017-12-01T00:51:34.516Z,10.00
2017-12-01T00:54:02.820Z,9.25
2017-12-01T00:56:31.107Z,9.98
2017-12-01T00:58:59.417Z,10.18
2017-12-01T01:01:27.697Z,9.22
2017-12-01T01:03:56.004Z,9.12
2017-12-01T01:06:24.288Z,9.65
2017-12-01T01:08:52.587Z,9.25
2017-12-01T01:11:20.871Z,8.90
2017-12-01T01:13:49.195Z,16.37
2017-12-01T01:16:17.480Z,13.65
2017-12-01T01:18:45.768Z,11.52
2017-12-01T01:21:14.071Z,9.55
2017-12-01T01:23:42.351Z,13.93
2017-12-01T01:26:10.662Z,21.87
2017-12-01T01:28:38.948Z,11.62
2017-12-01T01:31:07.248Z,12.20
2017-12-01T01:33:35.540Z,9.00
2017-12-01T01:36:03.843Z,10.37
2017-12-01T01:38:32.133Z,9.60
2017-12-01T01:41:00.445Z,10.38
2017-12-01T01:43:29.092Z,10.90
2017-12-01T01:45:57.396Z,9.82
2017-12-01T01:48:25.683Z,8.80
2017-12-01T01:50:53.980Z,9.25
2017-12-01T01:53:22.272Z,9.03
2017-12-01T01:55:50.580Z,13.23
2017-12-01T01:58:18.859Z,9.80
2017-12-01T02:00:47.165Z,9.93
2017-12-01T02:03:15.448Z,9.48
2017-12-01T02:05:43.755Z,10.75
2017-12-01T02:08:12.045Z,9.87
2017-12-01T02:10:40.344Z,9.02
2017-12-01T02:13:08.628Z,9.52
2017-12-01T02:15:36.942Z,8.63
2017-12-01T02:18:05.225Z,8.63
2017-12-01T02:20:33.564Z,9.08
2017-12-01T02:23:01.856Z,9.65
2017-12-01T02:25:30.164Z,9.35
2017-12-01T02:27:58.452Z,9.40
2017-12-01T02:30:26.752Z,8.98
2017-12-01T02:32:55.032Z,8.93
2017-12-01T02:35:23.342Z,8.53
2017-12-01T02:37:51.628Z,8.87
2017-12-01T02:40:19.931Z,9.48
2017-12-01T02:42:48.229Z,9.33
2017-12-01T02:45:16.541Z,10.15
2017-12-01T02:47:44.832Z,10.58
2017-12-01T02:50:13.145Z,10.42
2017-12-01T02:52:41.432Z,10.42
2017-12-01T02:55:09.721Z,12.05
2017-12-01T02:57:38.032Z,11.32
2017-12-01T03:00:06.320Z,12.52
2017-12-01T03:02:33.851Z,11.82
2017-12-01T03:05:02.139Z,12.15
2017-12-01T03:07:30.447Z,12.45
2017-12-01T03:09:58.736Z,12.05
2017-12-01T03:12:27.057Z,14.35
2017-12-01T03:14:55.348Z,13.92
2017-12-01T03:17:23.664Z,13.15
2017-12-01T03:19:51.953Z,14.03
2017-12-01T03:22:19.491Z,14.47
2017-12-01T03:24:47.776Z,14.35
2017-12-01T03:27:16.083Z,15.90
2017-12-01T03:29:44.374Z,14.15
2017-12-01T03:32:12.684Z,14.85
2017-12-01T03:34:40.975Z,14.55
2017-12-01T03:37:09.281Z,15.00
2017-12-01T03:39:37.605Z,14.92
2017-12-01T03:42:05.916Z,16.45
2017-12-01T03:44:34.236Z,15.80
2017-12-01T03:47:02.545Z,17.03
2017-12-01T03:49:30.833Z,15.82
2017-12-01T03:51:59.140Z,17.62
2017-12-01T03:54:27.429Z,17.33
2017-12-01T03:56:55.740Z,16.05
2017-12-01T03:59:24.033Z,14.57
2017-12-01T04:01:52.353Z,15.30
2017-12-01T04:04:20.643Z,12.93
2017-12-01T04:06:48.956Z,13.33
2017-12-01T04:09:17.244Z,13.40
2017-12-01T04:11:45.548Z,12.45
2017-12-01T04:14:13.841Z,13.87
2017-12-01T04:16:42.152Z,13.15
2017-12-01T04:19:09.675Z,13.82
2017-12-01T04:21:37.980Z,13.83
2017-12-01T04:24:06.264Z,13.12
2017-12-01T04:26:34.564Z,12.35
2017-12-01T04:29:02.844Z,14.80
2017-12-01T04:31:31.176Z,14.65
2017-12-01T04:33:59.464Z,14.27
2017-12-01T04:36:27.748Z,12.92
2017-12-01T04:38:56.065Z,14.68
2017-12-01T04:41:23.584Z,13.68
2017-12-01T04:43:51.893Z,13.05
2017-12-01T04:46:20.184Z,14.17
2017-12-01T04:48:48.520Z,13.38
2017-12-01T04:51:16.804Z,12.05
2017-12-01T04:53:44.343Z,13.57
2017-12-01T04:56:12.637Z,13.42
2017-12-01T04:58:40.944Z,12.77
2017-12-01T05:01:09.232Z,12.47
2017-12-01T05:03:37.536Z,13.40
2017-12-01T05:06:05.816Z,13.15
2017-12-01T05:08:34.116Z,12.68
2017-12-01T05:11:02.396Z,13.07
2017-12-01T05:13:30.714Z,12.40
2017-12-01T05:15:59.005Z,12.20
2017-12-01T05:18:27.317Z,12.13
2017-12-01T05:20:55.604Z,13.08
2017-12-01T05:23:23.918Z,12.18
2017-12-01T05:25:52.206Z,12.33
2017-12-01T05:28:23.295Z,13.27
2017-12-01T05:30:51.580Z,12.47
2017-12-01T05:33:19.887Z,13.00
2017-12-01T05:35:48.176Z,12.85
2017-12-01T05:38:16.493Z,10.22
2017-12-01T05:40:44.779Z,10.23
2017-12-01T05:43:13.086Z,9.97
2017-12-01T05:45:42.231Z,12.23
2017-12-01T05:48:10.539Z,11.60
2017-12-01T05:50:38.819Z,11.80
2017-12-01T05:53:07.149Z,12.53
2017-12-01T05:55:35.454Z,13.98
2017-12-01T05:58:03.766Z,14.97
2017-12-01T06:00:32.056Z,13.53
2017-12-01T06:03:00.376Z,12.40
2017-12-01T06:05:28.658Z,13.43
2017-12-01T06:07:56.981Z,11.88
2017-12-01T06:10:25.271Z,12.08
2017-12-01T06:12:53.559Z,13.02
2017-12-01T06:15:21.867Z,12.22
2017-12-01T06:17:50.155Z,18.88
2017-12-01T06:20:18.460Z,16.22
2017-12-01T06:22:46.745Z,13.28
2017-12-01T06:25:15.053Z,10.35
2017-12-01T06:27:43.341Z,12.37
2017-12-01T06:30:11.656Z,11.20
2017-12-01T06:32:39.944Z,12.07
2017-12-01T06:35:08.256Z,12.95
2017-12-01T06:37:36.540Z,12.23
2017-12-01T06:40:04.844Z,12.93
2017-12-01T06:42:33.133Z,11.38
2017-12-01T06:45:01.440Z,12.33
2017-12-01T06:47:29.724Z,12.00
2017-12-01T06:49:58.033Z,10.62
2017-12-01T06:52:26.325Z,11.85
2017-12-01T06:54:54.648Z,11.93
2017-12-01T06:57:22.933Z,13.78
2017-12-01T06:59:51.216Z,18.42
2017-12-01T07:02:19.529Z,14.00
2017-12-01T07:04:47.819Z,12.57
2017-12-01T07:07:16.129Z,12.70
2017-12-01T07:09:44.416Z,13.02
2017-12-01T07:12:12.724Z,13.32
2017-12-01T07:14:41.012Z,12.82
2017-12-01T07:17:09.328Z,12.85
2017-12-01T07:19:37.607Z,12.73
2017-12-01T07:22:05.907Z,14.78
2017-12-01T07:24:34.188Z,16.97
2017-12-01T07:27:08.193Z,15.68
2017-12-01T07:29:36.481Z,14.52
2017-12-01T07:32:04.808Z,14.92
2017-12-01T07:34:33.097Z,16.07
2017-12-01T07:37:01.392Z,14.40
2017-12-01T07:39:29.703Z,15.75
2017-12-01T07:41:57.993Z,14.97
2017-12-01T07:44:26.302Z,17.50
2017-12-01T07:46:54.587Z,20.13
2017-12-01T07:49:22.891Z,18.75
2017-12-01T07:51:51.177Z,18.80
2017-12-01T07:54:19.484Z,23.43
2017-12-01T07:56:47.870Z,25.37
2017-12-01T07:59:16.193Z,24.92
2017-12-01T08:01:44.475Z,16.18
2017-12-01T08:04:12.777Z,27.30
2017-12-01T08:06:41.055Z,34.70
2017-12-01T08:09:09.366Z,18.40
2017-12-01T08:11:37.656Z,20.90
2017-12-01T08:14:05.205Z,17.62
2017-12-01T08:16:45.468Z,16.25
2017-12-01T08:19:13.774Z,15.68
2017-12-01T08:21:54.028Z,15.02
2017-12-01T08:24:34.097Z,14.98
2017-12-01T08:27:02.380Z,12.47
2017-12-01T08:29:30.750Z,12.77
2017-12-01T08:31:59.040Z,13.75
2017-12-01T08:34:27.352Z,14.05
2017-12-01T08:36:55.640Z,12.08
2017-12-01T08:39:23.944Z,11.45
2017-12-01T08:41:52.233Z,11.00
2017-12-01T08:44:20.557Z,12.28
2017-12-01T08:46:49.112Z,10.77
2017-12-01T08:49:17.419Z,11.03
2017-12-01T08:51:45.704Z,11.68
2017-12-01T08:54:14.008Z,12.97
2017-12-01T08:56:42.300Z,12.53
2017-12-01T08:59:10.604Z,15.08
2017-12-01T09:01:38.893Z,12.92
2017-12-01T09:04:07.200Z,13.93
2017-12-01T09:06:35.484Z,13.40
2017-12-01T09:09:03.797Z,12.25
2017-12-01T09:11:32.096Z,12.20
2017-12-01T09:14:00.404Z,10.83
2017-12-01T09:16:28.692Z,8.92
2017-12-01T09:18:56.232Z,9.93
2017-12-01T09:21:24.520Z,9.90
2017-12-01T09:23:52.824Z,9.95
2017-12-01T09:26:21.109Z,9.30
2017-12-01T09:28:49.415Z,8.90
2017-12-01T09:31:17.705Z,47.42
2017-12-01T09:33:46.032Z,28.12
2017-12-01T09:36:14.313Z,19.10
2017-12-01T09:38:42.591Z,11.13
2017-12-01T09:41:10.896Z,8.18
2017-12-01T09:43:39.172Z,7.70
2017-12-01T09:46:07.476Z,7.55
2017-12-01T09:48:35.756Z,7.83
2017-12-01T09:51:04.053Z,5.97
2017-12-01T09:53:32.336Z,6.00
2017-12-01T09:56:00.632Z,5.98
2017-12-01T09:58:28.907Z,7.38
2017-12-01T10:00:57.203Z,6.72
2017-12-01T10:03:25.479Z,7.02
2017-12-01T10:05:53.801Z,6.17
2017-12-01T10:08:22.080Z,5.98
2017-12-01T10:10:50.385Z,6.22
2017-12-01T10:13:18.664Z,6.80
2017-12-01T10:15:46.960Z,7.07
2017-12-01T10:18:15.252Z,17.90
2017-12-01T10:20:43.565Z,8.05
2017-12-01T10:23:11.853Z,11.47
2017-12-01T10:25:40.505Z,9.15
2017-12-01T10:28:08.784Z,8.57
2017-12-01T10:30:37.095Z,8.23
2017-12-01T10:33:05.375Z,6.55
2017-12-01T10:35:33.680Z,8.05
2017-12-01T10:38:01.978Z,12.52
2017-12-01T10:40:30.289Z,10.70
2017-12-01T10:42:58.564Z,9.73
2017-12-01T10:45:26.878Z,10.10
2017-12-01T10:47:55.171Z,10.88
2017-12-01T10:50:23.474Z,10.80
2017-12-01T10:52:51.760Z,10.83
2017-12-01T10:55:20.059Z,10.65
2017-12-01T10:57:48.343Z,9.28
2017-12-01T11:00:16.644Z,9.08
2017-12-01T11:02:44.929Z,9.55
2017-12-01T11:05:13.232Z,9.37
2017-12-01T11:07:41.520Z,10.37
2017-12-01T11:10:09.833Z,10.22
2017-12-01T11:12:38.119Z,10.85
2017-12-01T11:15:06.413Z,10.13
2017-12-01T11:17:34.725Z,10.03
2017-12-01T11:20:03.009Z,9.28
2017-12-01T11:22:31.316Z,8.10
2017-12-01T11:24:59.601Z,8.32
2017-12-01T11:27:27.913Z,8.08
2017-12-01T11:29:56.196Z,7.65
2017-12-01T11:32:24.506Z,9.45
2017-12-01T11:34:52.792Z,17.55
2017-12-01T11:37:21.095Z,8.37
2017-12-01T11:39:49.375Z,9.43
2017-12-01T11:42:17.682Z,12.30
2017-12-01T11:44:45.964Z,10.32
2017-12-01T11:47:14.272Z,10.38
2017-12-01T11:49:42.567Z,13.88
2017-12-01T11:52:10.878Z,13.07
2017-12-01T11:54:39.164Z,13.13
2017-12-01T11:57:07.465Z,14.85
2017-12-01T11:59:35.753Z,13.72
2017-12-01T12:02:04.064Z,13.18
2017-12-01T12:04:32.347Z,11.75
2017-12-01T12:07:00.652Z,13.73
2017-12-01T12:09:28.940Z,13.90
2017-12-01T12:11:57.251Z,13.00
2017-12-01T12:14:25.536Z,16.48
2017-12-01T12:16:53.847Z,17.13
2017-12-01T12:19:22.130Z,17.40
2017-12-01T12:21:50.436Z,16.60
2017-12-01T12:24:18.724Z,19.90
2017-12-01T12:26:47.030Z,17.60
2017-12-01T12:29:15.331Z,32.00
2017-12-01T12:31:43.636Z,16.63
2017-12-01T12:34:11.929Z,25.62
2017-12-01T12:36:40.241Z,22.22
2017-12-01T12:39:08.530Z,24.20
2017-12-01T12:41:36.831Z,17.18
2017-12-01T12:44:05.120Z,23.83
2017-12-01T12:46:33.424Z,24.78
2017-12-01T12:49:01.715Z,27.77
2017-12-01T12:51:30.390Z,36.20
2017-12-01T12:53:58.679Z,19.38
2017-12-01T12:56:27.015Z,26.97
2017-12-01T12:58:55.326Z,35.98
2017-12-01T13:01:23.615Z,27.02
2017-12-01T13:03:51.953Z,29.57
2017-12-01T13:06:20.233Z,24.17
2017-12-01T13:08:48.540Z,28.13
2017-12-01T13:11:16.901Z,37.55
2017-12-01T13:13:45.213Z,48.38
2017-12-01T13:16:13.507Z,60.77
2017-12-01T13:18:41.829Z,36.05
2017-12-01T13:21:10.109Z,24.22
2017-12-01T13:23:38.417Z,38.82
2017-12-01T13:26:06.717Z,38.07
2017-12-01T13:28:35.020Z,29.42
2017-12-01T13:31:03.309Z,21.28
2017-12-01T13:33:31.612Z,24.38
2017-12-01T13:35:59.896Z,29.72
2017-12-01T13:38:28.200Z,19.75
2017-12-01T13:40:56.489Z,21.80
2017-12-01T13:43:24.798Z,20.50
2017-12-01T13:45:53.083Z,22.42
2017-12-01T13:48:21.393Z,19.90
2017-12-01T13:50:48.908Z,18.90
2017-12-01T13:53:17.228Z,18.07
2017-12-01T13:55:45.525Z,16.40
2017-12-01T13:58:13.848Z,31.03
2017-12-01T14:00:42.134Z,27.70
2017-12-01T14:03:10.436Z,22.05
2017-12-01T14:05:38.720Z,24.10
2017-12-01T14:08:07.019Z,21.27
2017-12-01T14:10:35.308Z,19.13
2017-12-01T14:13:03.616Z,19.62
2017-12-01T14:15:31.899Z,19.77
2017-12-01T14:18:00.208Z,17.68
2017-12-01T14:20:28.497Z,17.28
2017-12-01T14:22:56.809Z,17.70
2017-12-01T14:25:25.101Z,17.88
2017-12-01T14:27:53.418Z,17.77
2017-12-01T14:30:21.718Z,22.12
2017-12-01T14:32:50.003Z,18.97
2017-12-01T14:35:18.304Z,24.68
2017-12-01T14:37:46.587Z,17.50
2017-12-01T14:40:14.891Z,18.50
2017-12-01T14:42:43.177Z,23.65
2017-12-01T14:45:11.486Z,19.53
2017-12-01T14:47:39.776Z,19.15
2017-12-01T14:50:08.085Z,18.12
2017-12-01T14:52:36.375Z,18.35
2017-12-01T14:55:04.689Z,19.27
2017-12-01T14:57:32.976Z,18.17
2017-12-01T15:00:01.286Z,18.35
2017-12-01T15:02:29.576Z,18.13
2017-12-01T15:04:57.893Z,17.20
2017-12-01T15:07:26.197Z,24.70
2017-12-01T15:09:54.511Z,17.70
2017-12-01T15:12:22.791Z,17.67
2017-12-01T15:14:51.096Z,19.65
2017-12-01T15:17:19.381Z,25.67
2017-12-01T15:19:47.688Z,18.68
2017-12-01T15:22:15.982Z,16.95
2017-12-01T15:24:44.292Z,17.35
2017-12-01T15:27:12.585Z,18.52
2017-12-01T15:29:40.888Z,18.98
2017-12-01T15:32:09.172Z,16.93
2017-12-01T15:34:37.471Z,17.85
2017-12-01T15:37:05.756Z,17.05
2017-12-01T15:39:34.113Z,19.32
2017-12-01T15:42:02.378Z,18.18
2017-12-01T15:44:30.685Z,16.45
2017-12-01T15:46:58.977Z,18.83
2017-12-01T15:49:27.285Z,15.12
2017-12-01T15:51:55.564Z,16.60
2017-12-01T15:54:23.108Z,17.97
2017-12-01T15:56:51.399Z,16.68
2017-12-01T15:59:19.707Z,14.97
2017-12-01T16:01:47.992Z,16.28
2017-12-01T16:04:16.305Z,16.13
2017-12-01T16:06:44.588Z,16.77
2017-12-01T16:09:12.872Z,17.20
2017-12-01T16:11:41.176Z,16.35
2017-12-01T16:14:09.464Z,19.70
2017-12-01T16:16:37.776Z,18.15
2017-12-01T16:19:06.060Z,20.72
2017-12-01T16:21:34.396Z,21.23
2017-12-01T16:24:02.680Z,17.67
2017-12-01T16:26:30.984Z,19.63
2017-12-01T16:28:59.299Z,19.17
2017-12-01T16:31:27.604Z,20.42
2017-12-01T16:33:55.892Z,20.87
2017-12-01T16:36:24.200Z,20.18
2017-12-01T16:38:52.483Z,17.62
2017-12-01T16:41:20.788Z,18.78
2017-12-01T16:43:49.077Z,20.80
2017-12-01T16:46:17.380Z,19.40
2017-12-01T16:48:45.663Z,20.30
2017-12-01T16:51:13.972Z,19.73
2017-12-01T16:53:42.256Z,19.00
2017-12-01T16:56:10.567Z,19.10
2017-12-01T16:58:38.856Z,16.97
2017-12-01T17:01:07.177Z,20.57
2017-12-01T17:03:35.464Z,22.50
2017-12-01T17:06:03.784Z,21.10
2017-12-01T17:08:32.068Z,17.78
2017-12-01T17:11:00.403Z,16.12
2017-12-01T17:13:28.688Z,15.38
2017-12-01T17:15:57.009Z,18.82
2017-12-01T17:18:25.294Z,15.67
2017-12-01T17:20:53.607Z,18.17
2017-12-01T17:23:21.896Z,20.72
2017-12-01T17:25:50.204Z,19.00
2017-12-01T17:28:18.487Z,24.72
2017-12-01T17:30:46.795Z,15.12
2017-12-01T17:33:15.084Z,27.53
2017-12-01T17:35:43.407Z,15.42
2017-12-01T17:38:11.696Z,16.97
2017-12-01T17:40:40.013Z,15.88
2017-12-01T17:43:08.312Z,15.92
2017-12-01T17:45:36.631Z,18.17
2017-12-01T17:48:04.932Z,17.25
2017-12-01T17:50:33.221Z,17.23
2017-12-01T17:53:01.524Z,18.98
2017-12-01T17:55:29.808Z,18.12
2017-12-01T17:57:58.123Z,18.75
2017-12-01T18:00:26.404Z,17.12
2017-12-01T18:02:54.712Z,18.03
2017-12-01T18:05:22.995Z,18.18
2017-12-01T18:07:51.309Z,17.63
2017-12-01T18:10:19.592Z,17.33
2017-12-01T18:12:47.902Z,16.12
2017-12-01T18:15:15.415Z,17.10
2017-12-01T18:17:43.720Z,17.77
2017-12-01T18:20:12.017Z,17.15
2017-12-01T18:22:40.323Z,18.60
2017-12-01T18:25:08.614Z,20.57
2017-12-01T18:27:36.916Z,18.82
2017-12-01T18:30:05.204Z,18.70
2017-12-01T18:32:33.512Z,19.42
2017-12-01T18:35:01.798Z,19.80
2017-12-01T18:37:30.100Z,19.67
2017-12-01T18:39:58.383Z,18.12
2017-12-01T18:42:26.691Z,18.57
2017-12-01T18:44:54.984Z,19.43
2017-12-01T18:47:23.292Z,20.07
2017-12-01T18:49:51.575Z,18.42
2017-12-01T18:52:19.888Z,20.78
2017-12-01T18:54:48.178Z,19.27
2017-12-01T18:57:16.481Z,21.63
2017-12-01T18:59:44.763Z,20.53
2017-12-01T19:02:13.071Z,19.13
2017-12-01T19:04:41.352Z,21.85
2017-12-01T19:07:09.661Z,26.42
2017-12-01T19:09:37.947Z,24.65
2017-12-01T19:12:06.252Z,19.67
2017-12-01T19:14:34.536Z,20.72
2017-12-01T19:17:02.848Z,21.95
2017-12-01T19:19:42.600Z,21.23
2017-12-01T19:22:10.933Z,25.67
2017-12-01T19:24:39.224Z,24.20
2017-12-01T19:27:07.544Z,21.38
2017-12-01T19:29:35.832Z,24.93
2017-12-01T19:32:04.155Z,23.53
2017-12-01T19:34:32.452Z,22.50
2017-12-01T19:37:00.740Z,23.17
2017-12-01T19:39:29.108Z,21.42
2017-12-01T19:41:57.392Z,25.83
2017-12-01T19:44:25.721Z,23.50
2017-12-01T19:46:54.024Z,24.62
2017-12-01T19:49:22.327Z,23.33
2017-12-01T19:51:50.619Z,24.82
2017-12-01T19:54:18.923Z,21.57
2017-12-01T19:56:47.207Z,27.35
2017-12-01T19:59:15.560Z,23.77
2017-12-01T20:01:43.860Z,24.27
2017-12-01T20:04:12.172Z,25.83
2017-12-01T20:06:40.469Z,26.38
2017-12-01T20:09:08.779Z,24.63
2017-12-01T20:11:37.067Z,23.13
2017-12-01T20:14:05.419Z,29.12
2017-12-01T20:16:35.195Z,21.12
2017-12-01T20:19:03.516Z,22.27
2017-12-01T20:21:31.808Z,23.33
2017-12-01T20:24:00.133Z,21.13
2017-12-01T20:26:28.422Z,22.78
2017-12-01T20:28:56.758Z,21.35
2017-12-01T20:31:25.051Z,23.88
2017-12-01T20:33:53.405Z,22.60
2017-12-01T20:36:21.732Z,21.80
2017-12-01T20:38:50.106Z,21.22
2017-12-01T20:41:18.388Z,22.68
2017-12-01T20:43:46.760Z,20.03
2017-12-01T20:46:15.076Z,22.28
2017-12-01T20:48:43.385Z,20.28
2017-12-01T20:51:11.741Z,19.75
2017-12-01T20:53:40.037Z,19.33
2017-12-01T20:56:08.326Z,21.77
2017-12-01T20:58:36.637Z,19.45
2017-12-01T21:01:04.963Z,21.58
2017-12-01T21:03:33.272Z,18.00
2017-12-01T21:06:01.587Z,20.27
2017-12-01T21:08:29.897Z,21.22
2017-12-01T21:10:58.222Z,20.30
2017-12-01T21:13:26.552Z,20.43
2017-12-01T21:15:54.831Z,19.42
2017-12-01T21:18:23.126Z,20.40
2017-12-01T21:20:51.440Z,23.37
2017-12-01T21:23:19.732Z,21.17
2017-12-01T21:25:48.039Z,23.92
2017-12-01T21:28:16.327Z,23.00
2017-12-01T21:30:44.639Z,22.67
2017-12-01T21:33:12.948Z,21.95
2017-12-01T21:35:41.292Z,27.55
2017-12-01T21:38:09.584Z,23.17
2017-12-01T21:40:37.898Z,20.25
2017-12-01T21:43:06.245Z,21.38
2017-12-01T21:45:34.557Z,22.02
2017-12-01T21:48:02.845Z,22.05
2017-12-01T21:50:31.152Z,22.98
2017-12-01T21:52:59.436Z,21.80
2017-12-01T21:55:27.744Z,21.85
2017-12-01T21:57:56.032Z,22.92
2017-12-01T22:00:24.335Z,22.18
2017-12-01T22:02:52.624Z,22.65
2017-12-01T22:05:20.936Z,24.80
2017-12-01T22:07:49.225Z,22.20
2017-12-01T22:10:17.527Z,25.32
2017-12-01T22:12:45.810Z,23.17
2017-12-01T22:15:14.118Z,22.17
2017-12-01T22:17:42.405Z,22.82
2017-12-01T22:20:10.712Z,21.43
2017-12-01T22:22:39.003Z,24.25
2017-12-01T22:25:07.308Z,28.17
2017-12-01T22:27:35.595Z,25.77
2017-12-01T22:30:03.909Z,24.87
2017-12-01T22:32:32.205Z,25.65
2017-12-01T22:35:00.516Z,28.12
2017-12-01T22:37:28.808Z,30.68
2017-12-01T22:39:57.125Z,25.15
2017-12-01T22:42:25.417Z,27.13
2017-12-01T22:44:53.728Z,24.68
2017-12-01T22:47:22.016Z,27.67
2017-12-01T22:49:50.312Z,27.43
2017-12-01T22:52:18.621Z,30.45
2017-12-01T22:54:46.910Z,26.25
2017-12-01T22:57:15.216Z,26.82
2017-12-01T22:59:43.500Z,27.70
2017-12-01T23:02:11.816Z,24.92
2017-12-01T23:04:40.105Z,36.12
2017-12-01T23:07:08.420Z,23.48
2017-12-01T23:09:36.700Z,24.12
2017-12-01T23:12:05.008Z,27.65
2017-12-01T23:14:33.301Z,33.15
2017-12-01T23:17:01.608Z,32.12
2017-12-01T23:19:29.896Z,25.35
2017-12-01T23:21:58.204Z,25.08
2017-12-01T23:24:26.489Z,24.20
2017-12-01T23:26:54.800Z,24.40
2017-12-01T23:29:23.092Z,24.73
2017-12-01T23:31:51.399Z,23.05
2017-12-01T23:34:19.692Z,23.03
2017-12-01T23:36:48.008Z,23.75
2017-12-01T23:39:16.299Z,23.32
2017-12-01T23:41:44.664Z,23.57
2017-12-01T23:44:12.910Z,25.83
2017-12-01T23:46:41.220Z,23.35
2017-12-01T23:49:09.508Z,23.57
2017-12-01T23:51:37.822Z,25.28
2017-12-01T23:54:06.112Z,24.40
2017-12-01T23:56:34.424Z,23.28
2017-12-01T23:59:02.712Z,23.63
